This is the latest recevied weather packets stored in our database for station/object KC0SIQ-13. If no packets are shown the sender has not sent any weather packets the latest 10 day(s).
| Time | Temp. | Humidity | Pressure | Rain* | Wind** | Luminosity | Snow |
|---|---|---|---|---|---|---|---|
| 1777761191 | 26.11° C | 12% | 1014.8 hPa | 0 mm | - | 392 W/m² | - |
| 1777760889 | 23.89° C | 12% | 1014.8 hPa | 0 mm | - | 453 W/m² | - |
| 1777760586 | 25.56° C | 12% | 1014.8 hPa | 0 mm | - | 439 W/m² | - |
| 1777760281 | 26.11° C | 12% | 1014.7 hPa | 0 mm | - | 452 W/m² | - |
| 1777759978 | 27.78° C | 11% | 1014.9 hPa | 0 mm | - | 432 W/m² | - |
| 1777759675 | 27.22° C | 12% | 1014.8 hPa | 0 mm | - | 465 W/m² | - |
| 1777759371 | 26.67° C | 12% | 1015.2 hPa | 0 mm | - | 531 W/m² | - |
| 1777759068 | 26.67° C | 12% | 1015.2 hPa | 0 mm | - | 553 W/m² | - |
| 1777758765 | 26.11° C | 12% | 1015.2 hPa | 0 mm | - | 589 W/m² | - |
| 1777758462 | 26.67° C | 13% | 1015.4 hPa | 0 mm | - | 597 W/m² | - |
| 1777758159 | 25° C | 14% | 1015.4 hPa | 0 mm | - | 624 W/m² | - |
| 1777757856 | 25° C | 12% | 1015.3 hPa | 0 mm | - | 652 W/m² | - |
| 1777757553 | 26.11° C | 13% | 1015.7 hPa | 0 mm | - | 648 W/m² | - |
| 1777757252 | 26.67° C | 14% | 1015.5 hPa | 0 mm | - | 632 W/m² | - |
| 1777756950 | 26.67° C | 13% | 1015.6 hPa | 0 mm | - | 609 W/m² | - |
| 1777756646 | 25.56° C | 14% | 1015.6 hPa | 0 mm | - | 593 W/m² | - |
| 1777756343 | 25.56° C | 14% | 1016.1 hPa | 0 mm | - | 620 W/m² | - |
| 1777756040 | 25.56° C | 15% | 1015.6 hPa | 0 mm | - | 619 W/m² | - |
| 1777755737 | 24.44° C | 15% | 1016 hPa | 0 mm | - | 634 W/m² | - |
| 1777755434 | 25.56° C | 14% | 1016.1 hPa | 0 mm | - | 631 W/m² | - |
| 1777755130 | 26.11° C | 13% | 1016.1 hPa | 0 mm | - | 614 W/m² | - |
| 1777754828 | 25.56° C | 14% | 1016.3 hPa | 0 mm | - | 650 W/m² | - |
| 1777754525 | 24.44° C | 16% | 1016.4 hPa | 0 mm | - | 701 W/m² | - |
| 1777754222 | 23.33° C | 16% | 1016.3 hPa | 0 mm | - | 737 W/m² | - |
| 1777753921 | 24.44° C | 15% | 1016.4 hPa | 0 mm | - | 756 W/m² | - |
* Rain latest hour (hover to see other rain measurements)
** Current wind speed in m/s (hover to see current wind gust speed)